Time;durP1;ratioP1;P1;durP2;ratioP2;P2;SDS_P1;SDS_P2;PMS_P1;PMS_P2;Temp;Humidity;BMP_temperature;BMP_pressure;BME280_temperature;BME280_humidity;BME280_pressure;Samples;Min_cycle;Max_cycle;Signal;HPM_P1;HPM_P2
2021/04/22 00:02:16;;;;;;;17.50;11.93;;;10.70;81.20;;;;;;4988911;28;20688;-71
2021/04/22 00:04:43;;;;;;;12.90;11.47;;;10.70;81.50;;;;;;5004308;28;20223;-71
2021/04/22 00:07:10;;;;;;;14.50;11.47;;;10.70;82.20;;;;;;5009051;28;20277;-71
2021/04/22 00:09:37;;;;;;;15.63;13.03;;;10.80;82.60;;;;;;5009440;28;20236;-71
2021/04/22 00:12:08;;;;;;;16.50;12.70;;;10.80;82.80;;;;;;5009820;28;20224;-71
2021/04/22 00:14:35;;;;;;;15.03;12.67;;;10.70;84.00;;;;;;5001547;28;20270;-71
2021/04/22 00:17:07;;;;;;;12.67;11.30;;;10.80;84.90;;;;;;5004694;28;20216;-71
2021/04/22 00:19:35;;;;;;;14.80;12.37;;;11.00;84.60;;;;;;5009942;28;20278;-71
2021/04/22 00:22:02;;;;;;;15.73;13.27;;;10.90;84.30;;;;;;5007369;28;20299;-71
2021/04/22 00:24:28;;;;;;;15.83;12.60;;;10.90;85.10;;;;;;4997686;28;20565;-71
2021/04/22 00:26:55;;;;;;;16.43;12.03;;;11.00;85.70;;;;;;5005762;28;22314;-71
2021/04/22 00:29:22;;;;;;;13.07;11.67;;;11.00;85.30;;;;;;5008767;28;20303;-71
2021/04/22 00:31:48;;;;;;;15.40;11.90;;;11.00;85.40;;;;;;5007534;28;20250;-71
2021/04/22 00:34:15;;;;;;;17.57;12.53;;;11.00;85.20;;;;;;5006603;28;20224;-71
2021/04/22 00:36:42;;;;;;;19.30;13.17;;;10.90;85.40;;;;;;5008880;28;20207;-71
2021/04/22 00:39:08;;;;;;;15.93;13.20;;;11.00;85.90;;;;;;5006997;28;20256;-71
2021/04/22 00:41:35;;;;;;;14.27;11.50;;;10.90;86.10;;;;;;5009596;28;20230;-71
2021/04/22 00:44:05;;;;;;;16.70;11.73;;;10.90;86.10;;;;;;5007007;28;20216;-71
2021/04/22 00:46:32;;;;;;;16.80;12.20;;;10.90;85.60;;;;;;5007184;28;20213;-71
2021/04/22 00:48:59;;;;;;;12.50;11.20;;;10.90;85.30;;;;;;5009389;28;20208;-71
2021/04/22 00:51:27;;;;;;;14.33;11.63;;;10.90;85.20;;;;;;5009511;28;20224;-71
2021/04/22 00:53:54;;;;;;;15.13;13.13;;;10.80;85.20;;;;;;5006320;28;20220;-71
2021/04/22 00:56:20;;;;;;;16.40;12.87;;;10.80;85.40;;;;;;5007304;28;20251;-71
2021/04/22 00:58:47;;;;;;;13.20;11.13;;;10.70;85.80;;;;;;5004119;28;20235;-72
2021/04/22 01:01:14;;;;;;;13.77;10.97;;;10.70;86.10;;;;;;5005150;28;20212;-71
2021/04/22 01:03:40;;;;;;;13.13;11.73;;;10.70;85.80;;;;;;5006778;28;20239;-71
2021/04/22 01:06:09;;;;;;;12.77;10.90;;;10.60;85.50;;;;;;4989165;28;20219;-71
2021/04/22 01:08:36;;;;;;;16.23;11.03;;;10.60;85.30;;;;;;5003898;28;20228;-71
2021/04/22 01:11:05;;;;;;;11.60;10.40;;;10.60;85.10;;;;;;4998223;28;20230;-71
2021/04/22 01:13:32;;;;;;;11.20;10.10;;;10.50;84.90;;;;;;4999194;28;20232;-71
2021/04/22 01:15:59;;;;;;;13.00;9.20;;;10.60;84.90;;;;;;5002378;28;20239;-71
2021/04/22 01:18:25;;;;;;;11.17;9.73;;;10.50;85.40;;;;;;5005590;28;20225;-71
2021/04/22 01:20:53;;;;;;;11.23;10.10;;;10.50;84.80;;;;;;4998127;28;20216;-71
2021/04/22 01:23:20;;;;;;;11.57;10.30;;;10.60;84.90;;;;;;5006090;28;20216;-71
2021/04/22 01:25:50;;;;;;;12.97;11.40;;;10.60;85.00;;;;;;5008061;28;20235;-71
2021/04/22 01:28:18;;;;;;;12.37;11.10;;;10.60;84.90;;;;;;5006540;28;20227;-71
2021/04/22 01:30:54;;;;;;;15.70;11.73;;;10.60;85.10;;;;;;5005268;28;20224;-71
2021/04/22 01:33:27;;;;;;;12.80;11.47;;;10.60;85.90;;;;;;5004319;28;20220;-71
2021/04/22 01:35:56;;;;;;;15.13;12.80;;;10.60;85.30;;;;;;4999438;28;20298;-71
2021/04/22 01:38:24;;;;;;;18.40;13.97;;;10.50;85.10;;;;;;5005640;28;20216;-71
2021/04/22 01:40:51;;;;;;;17.17;14.33;;;10.40;85.70;;;;;;5006004;28;20579;-71
2021/04/22 01:43:18;;;;;;;16.90;13.13;;;10.40;86.30;;;;;;5007708;28;20215;-71
2021/04/22 01:45:44;;;;;;;20.00;13.50;;;10.50;86.80;;;;;;5003944;28;20639;-71
2021/04/22 01:48:11;;;;;;;19.20;13.77;;;10.50;86.90;;;;;;5007654;28;20652;-71
2021/04/22 01:50:38;;;;;;;15.50;12.50;;;10.50;87.10;;;;;;5007009;28;20277;-71
2021/04/22 01:53:07;;;;;;;18.37;13.47;;;10.50;87.20;;;;;;5004267;28;20220;-71
2021/04/22 01:55:37;;;;;;;18.60;15.23;;;10.60;87.30;;;;;;5005547;28;20252;-71
2021/04/22 01:58:06;;;;;;;17.97;13.80;;;10.60;87.30;;;;;;5005105;28;20228;-71
2021/04/22 02:00:43;;;;;;;19.60;14.57;;;10.60;87.40;;;;;;4971901;28;20241;-71
2021/04/22 02:03:11;;;;;;;17.23;14.07;;;10.60;87.40;;;;;;4964909;28;20225;-71
2021/04/22 02:05:38;;;;;;;21.80;14.03;;;10.70;87.40;;;;;;4965079;28;20221;-71
2021/04/22 02:08:07;;;;;;;18.20;13.53;;;10.70;87.40;;;;;;4973656;28;20688;-71
2021/04/22 02:10:34;;;;;;;17.20;14.50;;;10.60;87.90;;;;;;4968042;28;20220;-71
2021/04/22 02:13:02;;;;;;;17.17;14.00;;;10.70;87.30;;;;;;4963912;28;20213;-71
2021/04/22 02:15:30;;;;;;;18.83;13.77;;;10.70;87.40;;;;;;4967671;28;20591;-71
2021/04/22 02:17:57;;;;;;;19.67;14.53;;;10.70;87.40;;;;;;4971002;28;20310;-71
2021/04/22 02:20:24;;;;;;;15.90;13.50;;;10.60;87.40;;;;;;4969474;28;20217;-71
2021/04/22 02:22:51;;;;;;;21.53;14.30;;;10.60;87.40;;;;;;4966463;28;20842;-71
2021/04/22 02:25:20;;;;;;;18.47;14.57;;;10.60;87.50;;;;;;4968721;28;20247;-71
2021/04/22 02:27:47;;;;;;;21.17;15.13;;;10.60;87.60;;;;;;4964471;28;20221;-71
2021/04/22 02:30:16;;;;;;;20.63;14.67;;;10.60;87.60;;;;;;4965765;28;20221;-71
2021/04/22 02:32:43;;;;;;;20.37;14.23;;;10.60;87.80;;;;;;4974797;28;20218;-71
2021/04/22 02:35:12;;;;;;;20.27;15.00;;;10.60;87.80;;;;;;4971703;28;20245;-71
2021/04/22 02:37:39;;;;;;;20.37;15.03;;;10.60;87.90;;;;;;4967564;28;20218;-71
2021/04/22 02:40:08;;;;;;;17.23;14.17;;;10.60;88.00;;;;;;4965766;28;20236;-71
2021/04/22 02:42:34;;;;;;;20.33;14.83;;;10.60;88.10;;;;;;4964954;28;20248;-71
2021/04/22 02:45:03;;;;;;;19.17;14.33;;;10.60;88.10;;;;;;4964001;28;20244;-71
2021/04/22 02:47:30;;;;;;;19.73;14.47;;;10.60;88.10;;;;;;4964644;28;20233;-71
2021/04/22 02:49:56;;;;;;;21.70;15.83;;;10.50;88.10;;;;;;4964324;28;20221;-71
2021/04/22 02:52:23;;;;;;;16.70;14.60;;;10.50;88.20;;;;;;4971078;28;20560;-71
2021/04/22 02:54:49;;;;;;;17.87;14.93;;;10.50;88.30;;;;;;4967518;28;20260;-71
2021/04/22 02:57:16;;;;;;;16.47;14.53;;;10.50;88.30;;;;;;4964188;28;20221;-71
2021/04/22 02:59:43;;;;;;;22.07;14.20;;;10.50;88.40;;;;;;4982583;28;20243;-71
2021/04/22 03:02:09;;;;;;;19.67;15.67;;;10.50;88.40;;;;;;5003176;28;20216;-71
2021/04/22 03:04:36;;;;;;;20.00;15.27;;;10.50;88.40;;;;;;5006181;28;20207;-71
2021/04/22 03:07:03;;;;;;;18.00;14.33;;;10.60;88.50;;;;;;5002625;28;20228;-71
2021/04/22 03:09:29;;;;;;;19.60;16.00;;;10.60;88.50;;;;;;5008093;28;20311;-71
2021/04/22 03:11:56;;;;;;;19.20;15.40;;;10.60;88.60;;;;;;5004085;28;20221;-71
2021/04/22 03:14:23;;;;;;;23.10;14.43;;;10.60;88.70;;;;;;4994515;28;20585;-71
2021/04/22 03:16:50;;;;;;;17.17;15.27;;;10.60;88.80;;;;;;5002607;28;20732;-71
2021/04/22 03:19:17;;;;;;;22.00;16.03;;;10.60;88.80;;;;;;5003649;28;20235;-70
2021/04/22 03:21:43;;;;;;;18.17;16.27;;;10.60;88.80;;;;;;5004950;28;20219;-70
2021/04/22 03:24:10;;;;;;;17.63;15.50;;;10.60;88.80;;;;;;5005965;28;20223;-70
2021/04/22 03:26:37;;;;;;;19.97;16.33;;;10.60;88.80;;;;;;4994530;28;20236;-70
2021/04/22 03:29:04;;;;;;;23.90;15.23;;;10.60;88.80;;;;;;5005619;28;20263;-70
2021/04/22 03:31:31;;;;;;;18.93;16.07;;;10.60;88.80;;;;;;5002129;28;20231;-70
2021/04/22 03:33:57;;;;;;;18.83;15.80;;;10.60;88.80;;;;;;4997355;28;20220;-70
2021/04/22 03:36:24;;;;;;;17.83;15.47;;;10.60;88.80;;;;;;5001687;28;20695;-71
2021/04/22 03:38:50;;;;;;;20.47;15.37;;;10.60;88.90;;;;;;5004116;28;20222;-71
2021/04/22 03:41:17;;;;;;;17.40;15.47;;;10.60;88.90;;;;;;4997041;28;20552;-71
2021/04/22 03:43:44;;;;;;;18.13;14.87;;;10.60;88.80;;;;;;5003041;28;20248;-71
2021/04/22 03:46:10;;;;;;;21.63;15.87;;;10.50;88.70;;;;;;5003117;28;20220;-71
2021/04/22 03:48:37;;;;;;;18.13;14.43;;;10.50;88.70;;;;;;5006710;28;20680;-71
2021/04/22 03:51:04;;;;;;;21.07;16.03;;;10.50;88.80;;;;;;4993646;28;20235;-71
2021/04/22 03:53:30;;;;;;;19.03;16.50;;;10.40;88.70;;;;;;4988852;28;20215;-71
2021/04/22 03:55:57;;;;;;;21.70;17.30;;;10.50;88.80;;;;;;5003941;28;20247;-70
2021/04/22 03:58:24;;;;;;;22.60;18.27;;;10.40;89.00;;;;;;4988133;28;20216;-70
2021/04/22 04:00:50;;;;;;;26.50;18.83;;;10.40;89.10;;;;;;5008548;28;20248;-70
2021/04/22 04:03:17;;;;;;;19.73;17.60;;;10.40;89.40;;;;;;5006867;28;20247;-71
2021/04/22 04:05:44;;;;;;;19.70;17.30;;;10.40;89.50;;;;;;5007059;28;20255;-71
2021/04/22 04:08:10;;;;;;;22.40;17.57;;;10.30;89.50;;;;;;5006956;28;20534;-71
2021/04/22 04:10:37;;;;;;;21.17;16.60;;;10.30;89.60;;;;;;5010744;28;20220;-70
2021/04/22 04:13:04;;;;;;;22.47;18.40;;;10.30;89.70;;;;;;5008978;28;20227;-70
2021/04/22 04:15:30;;;;;;;26.97;17.97;;;10.30;89.60;;;;;;5004988;28;20681;-70
2021/04/22 04:18:00;;;;;;;29.23;20.20;;;10.30;89.80;;;;;;5006476;28;20216;-70
2021/04/22 04:20:32;;;;;;;21.13;17.70;;;10.30;89.90;;;;;;4999929;28;20216;-70
2021/04/22 04:22:58;;;;;;;22.07;17.13;;;10.30;89.90;;;;;;5009235;28;20224;-70
2021/04/22 04:25:25;;;;;;;25.50;18.13;;;10.30;90.00;;;;;;5006049;28;20231;-70
2021/04/22 04:27:51;;;;;;;20.90;17.33;;;10.30;90.00;;;;;;5009614;28;20314;-70
2021/04/22 04:30:19;;;;;;;23.83;17.70;;;10.30;90.00;;;;;;5005922;28;20565;-70
2021/04/22 04:32:46;;;;;;;21.87;17.80;;;10.30;89.90;;;;;;5007074;28;20539;-71
2021/04/22 04:35:13;;;;;;;26.47;17.90;;;10.40;89.80;;;;;;5005094;28;20244;-71
2021/04/22 04:37:40;;;;;;;21.37;18.07;;;10.30;89.70;;;;;;5004635;28;20228;-71
2021/04/22 04:40:09;;;;;;;24.07;19.27;;;10.30;89.60;;;;;;5003636;28;20216;-71
2021/04/22 04:42:37;;;;;;;24.30;20.37;;;10.30;89.80;;;;;;5003292;28;20243;-71
2021/04/22 04:45:09;;;;;;;28.67;22.00;;;10.30;90.00;;;;;;5004005;28;20319;-71
2021/04/22 04:47:36;;;;;;;24.23;19.87;;;10.40;90.10;;;;;;5006311;28;20581;-71
2021/04/22 04:50:05;;;;;;;27.40;20.93;;;10.40;90.10;;;;;;5002295;28;20212;-71
2021/04/22 04:52:32;;;;;;;24.83;20.77;;;10.40;90.10;;;;;;5008539;28;20224;-71
2021/04/22 04:54:59;;;;;;;26.63;22.53;;;10.50;90.20;;;;;;5006613;28;20240;-71
2021/04/22 04:57:25;;;;;;;27.43;21.60;;;10.60;90.20;;;;;;5002020;28;20242;-71
2021/04/22 04:59:52;;;;;;;25.33;21.30;;;10.60;90.20;;;;;;5007678;28;20240;-71
2021/04/22 05:02:19;;;;;;;33.57;22.60;;;10.70;90.20;;;;;;5011026;28;20212;-71
2021/04/22 05:04:45;;;;;;;30.90;25.17;;;10.80;90.20;;;;;;5005928;28;20221;-71
2021/04/22 05:07:12;;;;;;;28.53;24.87;;;10.80;90.10;;;;;;5004892;28;20216;-71
2021/04/22 05:09:39;;;;;;;32.50;24.63;;;10.80;90.10;;;;;;5007866;28;20735;-71
2021/04/22 05:12:06;;;;;;;32.50;24.93;;;10.90;90.20;;;;;;5006938;28;20238;-71
2021/04/22 05:14:34;;;;;;;31.77;25.63;;;10.90;90.10;;;;;;5005729;28;20212;-71
2021/04/22 05:17:00;;;;;;;32.93;27.27;;;11.00;90.10;;;;;;5001867;28;20220;-71
2021/04/22 05:19:27;;;;;;;37.90;27.67;;;11.00;90.10;;;;;;5000237;28;20295;-71
2021/04/22 05:21:54;;;;;;;33.40;28.50;;;11.10;90.10;;;;;;5007663;28;20216;-71
2021/04/22 05:24:21;;;;;;;34.83;29.63;;;11.20;90.10;;;;;;5009615;28;20226;-71
2021/04/22 05:26:47;;;;;;;35.37;28.77;;;11.30;90.10;;;;;;5006560;28;20552;-71
2021/04/22 05:29:14;;;;;;;37.57;30.13;;;11.30;90.10;;;;;;5005174;28;20212;-71
2021/04/22 05:31:40;;;;;;;36.67;29.17;;;11.40;90.00;;;;;;5007710;28;20222;-71
2021/04/22 05:34:07;;;;;;;38.60;30.93;;;11.50;90.00;;;;;;5005772;28;20228;-71
2021/04/22 05:36:34;;;;;;;36.63;30.43;;;11.60;90.00;;;;;;5004503;28;20239;-71
2021/04/22 05:39:00;;;;;;;39.23;31.30;;;11.70;89.90;;;;;;5004605;28;20222;-71
2021/04/22 05:41:27;;;;;;;45.27;32.83;;;11.80;89.70;;;;;;5007295;28;20226;-71
2021/04/22 05:43:54;;;;;;;42.73;32.97;;;11.80;89.50;;;;;;4993212;28;20213;-71
2021/04/22 05:46:20;;;;;;;42.43;32.63;;;11.90;89.50;;;;;;5007206;28;20223;-71
2021/04/22 05:48:47;;;;;;;44.33;34.13;;;11.90;89.40;;;;;;5002906;28;20289;-71
2021/04/22 05:51:17;;;;;;;38.73;32.93;;;12.00;89.40;;;;;;5004955;28;20228;-71
2021/04/22 05:53:45;;;;;;;40.57;33.50;;;12.10;89.30;;;;;;4995057;28;20232;-71
2021/04/22 05:56:11;;;;;;;39.77;33.83;;;12.10;89.10;;;;;;5007023;28;20243;-71
2021/04/22 05:58:38;;;;;;;42.23;34.90;;;12.20;89.00;;;;;;5009030;28;20215;-71
2021/04/22 06:01:05;;;;;;;44.17;35.90;;;12.20;89.00;;;;;;5004771;28;20260;-71
2021/04/22 06:03:32;;;;;;;40.73;35.23;;;12.30;88.90;;;;;;5006323;28;20296;-71
2021/04/22 06:05:58;;;;;;;39.83;35.10;;;12.40;88.90;;;;;;5005075;28;20231;-71
2021/04/22 06:08:25;;;;;;;42.90;34.90;;;12.50;88.90;;;;;;5006953;28;20224;-71
2021/04/22 06:10:51;;;;;;;44.80;34.97;;;12.60;88.70;;;;;;4997849;28;20224;-71
2021/04/22 06:13:18;;;;;;;44.40;36.90;;;12.60;88.50;;;;;;5007061;28;20302;-71
2021/04/22 06:15:45;;;;;;;48.20;36.07;;;12.70;88.30;;;;;;5002855;28;20900;-71
2021/04/22 06:18:11;;;;;;;44.00;37.57;;;12.70;88.30;;;;;;5005927;28;20512;-71
2021/04/22 06:20:39;;;;;;;41.77;35.90;;;12.80;88.20;;;;;;4997721;28;20627;-71
2021/04/22 06:23:23;;;;;;;41.00;35.83;;;12.80;88.20;;;;;;4989400;28;20304;-71
2021/04/22 06:25:50;;;;;;;42.87;37.10;;;12.90;88.20;;;;;;5006181;28;20242;-71
2021/04/22 06:28:16;;;;;;;44.60;39.33;;;13.10;88.00;;;;;;5004450;28;20228;-71
2021/04/22 06:30:43;;;;;;;41.17;36.77;;;13.30;87.90;;;;;;5004504;28;20228;-71
2021/04/22 06:33:10;;;;;;;46.07;36.33;;;13.50;87.80;;;;;;5006226;28;20215;-71
2021/04/22 06:35:39;;;;;;;42.80;35.80;;;13.60;87.70;;;;;;5001212;28;20255;-71
2021/04/22 06:38:06;;;;;;;41.70;34.07;;;13.80;87.30;;;;;;5004896;28;20220;-71
2021/04/22 06:40:34;;;;;;;38.00;33.07;;;14.00;87.00;;;;;;5003256;28;20223;-71
2021/04/22 06:43:08;;;;;;;40.97;35.40;;;14.10;86.40;;;;;;4985276;28;20227;-71
2021/04/22 06:45:37;;;;;;;39.57;34.63;;;14.20;85.80;;;;;;5000216;28;20262;-71
2021/04/22 06:48:05;;;;;;;38.23;31.97;;;14.30;86.10;;;;;;5006348;28;20254;-71
2021/04/22 06:50:32;;;;;;;43.93;33.77;;;14.40;86.00;;;;;;5004416;28;20220;-71
2021/04/22 06:52:59;;;;;;;41.40;33.93;;;14.50;85.70;;;;;;5003802;28;20660;-71
2021/04/22 06:55:26;;;;;;;37.33;31.10;;;14.70;85.30;;;;;;5005902;28;20261;-71
2021/04/22 06:58:02;;;;;;;41.10;32.80;;;14.70;84.60;;;;;;5004090;28;20225;-71
2021/04/22 07:00:34;;;;;;;46.63;33.43;;;14.80;84.40;;;;;;4993930;28;20639;-71
2021/04/22 07:03:01;;;;;;;40.40;32.80;;;14.80;84.40;;;;;;5005030;28;20227;-71
2021/04/22 07:05:28;;;;;;;36.67;31.67;;;14.70;84.60;;;;;;5002078;28;20216;-69
2021/04/22 07:07:55;;;;;;;36.57;32.40;;;14.70;84.70;;;;;;5005584;28;20314;-69
2021/04/22 07:10:21;;;;;;;37.77;31.73;;;14.70;84.90;;;;;;4989589;28;20215;-69
2021/04/22 07:12:48;;;;;;;37.40;31.70;;;14.70;85.10;;;;;;4986615;28;20232;-69
2021/04/22 07:15:15;;;;;;;37.47;31.10;;;14.70;85.50;;;;;;5002803;28;20236;-69
2021/04/22 07:17:48;;;;;;;39.50;31.57;;;14.70;85.40;;;;;;5003324;28;20256;-69
2021/04/22 07:20:17;;;;;;;37.60;31.73;;;14.80;85.30;;;;;;5003519;28;20624;-69
2021/04/22 07:22:55;;;;;;;34.60;30.67;;;15.00;85.10;;;;;;5002353;28;20216;-71
2021/04/22 07:25:29;;;;;;;35.80;30.50;;;15.20;84.80;;;;;;5003345;28;20235;-71
2021/04/22 07:27:57;;;;;;;34.00;30.47;;;15.40;84.50;;;;;;4999056;28;20525;-72
2021/04/22 07:30:24;;;;;;;33.53;29.00;;;15.60;84.20;;;;;;4986898;28;20277;-71
2021/04/22 07:32:51;;;;;;;35.30;29.83;;;15.80;83.20;;;;;;5004957;28;20230;-71
2021/04/22 07:35:19;;;;;;;35.10;29.77;;;15.80;82.10;;;;;;4982745;28;20759;-69
2021/04/22 07:37:48;;;;;;;34.37;29.50;;;15.80;82.60;;;;;;4987203;28;20298;-69
2021/04/22 07:40:21;;;;;;;33.53;25.20;;;16.00;82.80;;;;;;5001674;28;20283;-69
2021/04/22 07:42:48;;;;;;;29.47;26.30;;;16.30;81.60;;;;;;4999269;28;20523;-69
2021/04/22 07:45:17;;;;;;;27.80;24.90;;;16.50;80.00;;;;;;5003455;28;20821;-69
2021/04/22 07:47:45;;;;;;;31.30;24.90;;;16.60;79.90;;;;;;4988563;28;20307;-69
2021/04/22 07:50:14;;;;;;;31.57;24.97;;;16.70;79.40;;;;;;5004827;28;20227;-69
2021/04/22 07:52:43;;;;;;;31.90;26.20;;;16.90;78.50;;;;;;5004123;28;20224;-69
2021/04/22 07:55:12;;;;;;;26.40;23.70;;;17.00;78.40;;;;;;5002219;28;20248;-69
2021/04/22 07:57:39;;;;;;;26.80;23.90;;;16.80;78.50;;;;;;5004214;28;20226;-69
2021/04/22 08:00:08;;;;;;;33.80;24.07;;;16.90;79.20;;;;;;5003744;28;20258;-69
2021/04/22 08:02:39;;;;;;;29.10;23.93;;;17.10;79.20;;;;;;4990373;28;20223;-69
2021/04/22 08:05:08;;;;;;;26.60;23.63;;;17.30;78.70;;;;;;4983899;28;20220;-69
2021/04/22 08:07:35;;;;;;;26.33;22.63;;;17.40;78.70;;;;;;5004723;28;20211;-69
2021/04/22 08:10:12;;;;;;;25.27;22.30;;;17.30;77.60;;;;;;5004774;28;20647;-69
2021/04/22 08:12:45;;;;;;;23.47;18.97;;;17.20;78.20;;;;;;4996382;28;20511;-70
2021/04/22 08:15:13;;;;;;;22.30;18.83;;;17.10;78.00;;;;;;5003314;28;20262;-70
2021/04/22 08:17:40;;;;;;;14.77;12.90;;;17.00;78.20;;;;;;5000095;28;20682;-69
2021/04/22 08:20:21;;;;;;;19.70;12.57;;;17.00;78.10;;;;;;5004812;28;20274;-70
2021/04/22 08:22:48;;;;;;;20.23;18.10;;;17.00;77.40;;;;;;5003870;28;20208;-69
2021/04/22 08:25:21;;;;;;;21.37;18.80;;;17.00;77.10;;;;;;5006086;28;20246;-70
2021/04/22 08:27:49;;;;;;;27.27;21.57;;;16.90;77.30;;;;;;5006568;28;20530;-69
2021/04/22 08:30:39;;;;;;;25.03;21.40;;;16.80;78.40;;;;;;4996505;28;20212;-69
2021/04/22 08:33:06;;;;;;;23.90;20.93;;;16.80;79.00;;;;;;5008328;28;20224;-69
2021/04/22 08:35:33;;;;;;;19.73;16.57;;;17.00;78.90;;;;;;5006745;28;20244;-70
2021/04/22 08:37:59;;;;;;;20.37;16.50;;;17.30;78.30;;;;;;5007037;28;20217;-69
2021/04/22 08:40:27;;;;;;;20.77;16.97;;;17.50;76.70;;;;;;5008944;28;20224;-70
2021/04/22 08:42:54;;;;;;;20.20;17.57;;;17.70;76.70;;;;;;5004964;28;20217;-69
2021/04/22 08:45:21;;;;;;;21.10;17.87;;;18.00;73.80;;;;;;5007321;28;20553;-70
2021/04/22 08:47:48;;;;;;;24.27;20.07;;;18.20;74.20;;;;;;5004422;28;20610;-70
2021/04/22 08:50:18;;;;;;;20.63;18.43;;;18.40;75.10;;;;;;5008054;28;20220;-70
2021/04/22 08:52:49;;;;;;;23.37;19.37;;;18.70;74.90;;;;;;4997994;28;20582;-71
2021/04/22 08:55:19;;;;;;;23.70;16.27;;;19.00;73.00;;;;;;4995960;28;20335;-72
2021/04/22 08:57:46;;;;;;;14.10;12.60;;;19.20;70.10;;;;;;5001649;28;20220;-72
2021/04/22 09:00:15;;;;;;;17.50;12.73;;;19.20;68.30;;;;;;5006165;28;20248;-72
2021/04/22 09:02:42;;;;;;;19.50;13.50;;;19.30;67.80;;;;;;5008063;28;20216;-72
2021/04/22 09:05:13;;;;;;;16.73;13.47;;;19.30;68.80;;;;;;5003169;28;20216;-72
2021/04/22 09:07:40;;;;;;;13.97;12.53;;;19.20;68.00;;;;;;4996817;28;20648;-72
2021/04/22 09:10:11;;;;;;;13.83;12.40;;;19.10;67.60;;;;;;5004347;28;20216;-73
2021/04/22 09:12:38;;;;;;;14.53;12.20;;;19.10;66.50;;;;;;4988850;28;20212;-73
2021/04/22 09:15:11;;;;;;;14.77;10.30;;;19.20;66.40;;;;;;5004971;28;20311;-72
2021/04/22 09:17:40;;;;;;;15.07;9.87;;;19.30;64.30;;;;;;5003687;28;20227;-72
2021/04/22 09:20:10;;;;;;;11.57;9.97;;;19.30;64.10;;;;;;5005936;28;20216;-72
2021/04/22 09:22:41;;;;;;;11.93;10.20;;;19.40;63.70;;;;;;5006611;28;20227;-72
2021/04/22 09:25:22;;;;;;;14.07;10.57;;;19.30;63.40;;;;;;4984588;28;20216;-73
2021/04/22 09:27:49;;;;;;;14.23;10.93;;;19.50;63.10;;;;;;4987369;28;20628;-73
2021/04/22 09:30:30;;;;;;;12.87;11.63;;;19.40;61.80;;;;;;4990660;28;20220;-71
2021/04/22 09:32:57;;;;;;;12.23;11.03;;;19.00;64.00;;;;;;4982863;28;20296;-73
2021/04/22 09:35:26;;;;;;;13.63;12.30;;;19.10;64.80;;;;;;5005735;28;20232;-73
2021/04/22 09:37:53;;;;;;;14.10;12.20;;;19.40;63.00;;;;;;5006748;28;20628;-73
2021/04/22 09:40:29;;;;;;;18.30;11.97;;;19.70;63.30;;;;;;4989951;28;20231;-73
2021/04/22 09:42:58;;;;;;;18.13;11.40;;;20.00;62.20;;;;;;5006722;28;20600;-73
2021/04/22 09:45:28;;;;;;;20.50;12.63;;;20.00;61.40;;;;;;5003626;28;20221;-73
2021/04/22 09:48:29;;;;;;;14.83;12.00;;;19.90;62.20;;;;;;4993184;28;20243;-72
2021/04/22 09:50:58;;;;;;;13.57;9.90;;;19.70;62.40;;;;;;5004164;28;20274;-73
2021/04/22 09:53:25;;;;;;;15.33;10.93;;;19.90;62.60;;;;;;5006221;28;20216;-73
2021/04/22 09:56:09;;;;;;;12.30;10.83;;;20.50;62.30;;;;;;5005989;28;20577;-73
2021/04/22 09:58:36;;;;;;;11.33;10.13;;;20.70;61.00;;;;;;4989412;28;20221;-72
2021/04/22 10:01:06;;;;;;;11.03;9.93;;;20.40;60.00;;;;;;5002922;28;20272;-72
2021/04/22 10:03:34;;;;;;;12.23;10.47;;;20.00;60.10;;;;;;5002678;28;20216;-73
2021/04/22 10:06:03;;;;;;;10.90;9.00;;;19.90;60.20;;;;;;4990479;28;20220;-73
2021/04/22 10:08:30;;;;;;;9.93;8.97;;;19.90;60.40;;;;;;4986723;28;20228;-73
2021/04/22 10:11:06;;;;;;;10.67;8.87;;;19.80;60.10;;;;;;4992955;28;20219;-70
2021/04/22 10:13:47;;;;;;;9.73;8.40;;;19.90;60.00;;;;;;5006822;28;20310;-70
2021/04/22 10:16:15;;;;;;;11.53;9.03;;;20.00;60.80;;;;;;5002973;28;20241;-70
2021/04/22 10:18:44;;;;;;;10.33;8.03;;;20.40;59.70;;;;;;5003744;28;20212;-71
2021/04/22 10:21:12;;;;;;;11.63;8.07;;;20.70;58.40;;;;;;5005492;28;20215;-70
2021/04/22 10:23:40;;;;;;;9.27;6.87;;;20.70;59.00;;;;;;5006006;28;20216;-69
2021/04/22 10:26:17;;;;;;;8.07;7.27;;;20.60;58.50;;;;;;5003499;28;20339;-70
2021/04/22 10:28:44;;;;;;;7.90;7.07;;;20.70;58.20;;;;;;5003885;28;20358;-71
2021/04/22 10:31:10;;;;;;;9.73;7.20;;;21.00;58.60;;;;;;5006369;28;20224;-70
2021/04/22 10:33:37;;;;;;;9.17;7.63;;;21.20;56.40;;;;;;5003774;28;20504;-71
2021/04/22 10:36:05;;;;;;;10.53;7.43;;;21.40;56.60;;;;;;5002740;28;20242;-73
2021/04/22 10:38:33;;;;;;;8.20;7.10;;;21.50;53.90;;;;;;5006003;28;20671;-73
2021/04/22 10:41:00;;;;;;;8.43;6.80;;;21.20;53.90;;;;;;5003553;28;20217;-72
2021/04/22 10:43:28;;;;;;;9.77;6.17;;;21.10;53.90;;;;;;5004934;28;20226;-73
2021/04/22 10:45:56;;;;;;;9.10;6.20;;;21.30;52.30;;;;;;5003733;28;20227;-73
2021/04/22 10:48:24;;;;;;;7.37;6.60;;;21.40;51.00;;;;;;5005753;28;20283;-73
2021/04/22 10:50:53;;;;;;;9.73;7.40;;;21.50;53.00;;;;;;4995812;28;20316;-73
2021/04/22 10:53:22;;;;;;;8.90;7.40;;;21.70;51.90;;;;;;5006682;28;20234;-73
2021/04/22 10:55:51;;;;;;;6.40;5.73;;;21.90;51.20;;;;;;5002136;28;20567;-73
2021/04/22 10:58:29;;;;;;;7.40;6.70;;;21.90;52.00;;;;;;5002244;28;20223;-73
2021/04/22 11:01:03;;;;;;;9.27;6.40;;;21.90;51.30;;;;;;5004847;28;20235;-71
2021/04/22 11:03:30;;;;;;;6.87;6.10;;;22.00;50.30;;;;;;5014120;28;20380;-71
2021/04/22 11:06:04;;;;;;;10.00;7.70;;;22.10;49.30;;;;;;5004948;28;20223;-71
2021/04/22 11:08:52;;;;;;;8.17;7.37;;;22.20;49.10;;;;;;5004519;28;20224;-71
2021/04/22 11:11:21;;;;;;;10.20;7.97;;;21.80;50.10;;;;;;5005515;28;20263;-70
2021/04/22 11:14:03;;;;;;;7.67;6.97;;;21.40;52.20;;;;;;5005473;28;20227;-70
2021/04/22 11:16:33;;;;;;;8.97;7.53;;;21.50;52.40;;;;;;5001741;28;20248;-70
2021/04/22 11:19:00;;;;;;;7.43;6.40;;;21.40;52.40;;;;;;4999432;28;20307;-70
2021/04/22 11:21:33;;;;;;;9.53;6.83;;;21.20;52.60;;;;;;5004270;28;20211;-70
2021/04/22 11:24:03;;;;;;;8.17;6.07;;;21.00;51.40;;;;;;4996143;28;20216;-70
2021/04/22 11:26:33;;;;;;;9.17;6.37;;;20.70;52.50;;;;;;5003726;28;20213;-70
2021/04/22 11:29:17;;;;;;;9.67;6.77;;;20.70;53.70;;;;;;5002030;28;20216;-70
2021/04/22 11:31:56;;;;;;;12.87;6.57;;;21.20;52.20;;;;;;4999512;28;20220;-70
2021/04/22 11:34:34;;;;;;;7.53;6.83;;;21.70;50.60;;;;;;5005366;28;20233;-70
2021/04/22 11:37:12;;;;;;;9.03;6.97;;;22.20;50.60;;;;;;4992125;28;20236;-70
2021/04/22 11:39:39;;;;;;;9.80;7.97;;;22.40;50.50;;;;;;5005956;28;20219;-70
2021/04/22 11:42:06;;;;;;;10.00;7.73;;;22.10;50.60;;;;;;5005213;28;20233;-70
2021/04/22 11:44:42;;;;;;;8.07;7.27;;;21.90;51.50;;;;;;5013406;28;20211;-70
2021/04/22 11:47:27;;;;;;;9.13;8.13;;;21.50;52.00;;;;;;5005498;28;20219;-70
2021/04/22 11:50:09;;;;;;;8.93;7.10;;;21.10;51.20;;;;;;4995505;28;20652;-70
2021/04/22 11:52:49;;;;;;;9.37;7.03;;;20.80;51.40;;;;;;5002569;28;20307;-70
2021/04/22 11:55:32;;;;;;;11.03;8.30;;;20.60;52.80;;;;;;4987076;28;20562;-70
2021/04/22 11:58:04;;;;;;;9.07;7.30;;;20.70;53.10;;;;;;5003968;28;20219;-70
2021/04/22 12:00:36;;;;;;;9.83;7.13;;;21.00;54.60;;;;;;4969859;28;20234;-70
2021/04/22 12:03:03;;;;;;;8.70;7.33;;;21.10;52.20;;;;;;4960583;28;20288;-70
2021/04/22 12:05:30;;;;;;;9.70;7.53;;;20.80;52.90;;;;;;4965405;28;20210;-70
2021/04/22 12:08:08;;;;;;;10.67;8.43;;;20.70;52.20;;;;;;4966429;28;20344;-70
2021/04/22 12:10:37;;;;;;;9.60;8.03;;;20.60;51.80;;;;;;4964162;28;20664;-70
2021/04/22 12:13:15;;;;;;;9.13;7.90;;;20.50;52.70;;;;;;4966131;28;20661;-70
2021/04/22 12:15:45;;;;;;;10.97;7.80;;;20.50;53.40;;;;;;4962457;28;20248;-70
2021/04/22 12:18:22;;;;;;;10.33;8.73;;;20.50;54.90;;;;;;4972681;28;20657;-70
2021/04/22 12:20:50;;;;;;;11.67;7.63;;;20.50;55.40;;;;;;4972944;28;20660;-70
2021/04/22 12:23:27;;;;;;;9.77;6.90;;;20.40;54.80;;;;;;4963474;28;20218;-70
2021/04/22 12:26:26;;;;;;;10.03;6.37;;;20.20;55.00;;;;;;4964866;28;20229;-70
2021/04/22 12:28:55;;;;;;;7.87;7.07;;;20.10;56.20;;;;;;4957029;28;20228;-70
2021/04/22 12:31:36;;;;;;;8.13;6.53;;;19.90;56.20;;;;;;4970514;28;20225;-70
2021/04/22 12:34:17;;;;;;;8.03;5.90;;;19.90;55.80;;;;;;4957615;28;20229;-70
2021/04/22 12:37:02;;;;;;;7.97;6.43;;;19.70;56.80;;;;;;4960185;28;20249;-70
2021/04/22 12:39:35;;;;;;;9.83;6.80;;;19.60;56.80;;;;;;4959846;28;20547;-70
2021/04/22 12:42:13;;;;;;;9.07;6.37;;;19.60;57.40;;;;;;4963502;28;20643;-70